Time;durP1;ratioP1;P1;durP2;ratioP2;P2;SDS_P1;SDS_P2;PMS_P1;PMS_P2;Temp;Humidity;BMP_temperature;BMP_pressure;BME280_temperature;BME280_humidity;BME280_pressure;Samples;Min_cycle;Max_cycle;Signal;HPM_P1;HPM_P2
2023/04/09 00:00:24;;;;;;;0.80;0.80;;;;;;;10.95;100.00;102606.16;10405161;28;20084;-77
2023/04/09 00:05:26;;;;;;;2.08;0.80;;;;;;;10.83;100.00;102608.09;10412161;28;20088;-77
2023/04/09 00:10:28;;;;;;;1.60;0.95;;;;;;;10.90;100.00;102610.19;10406716;28;20045;-77
2023/04/09 00:15:29;;;;;;;1.67;1.25;;;;;;;10.72;100.00;102615.28;10414691;28;20046;-77
2023/04/09 00:20:32;;;;;;;2.50;0.98;;;;;;;10.76;100.00;102619.78;10411140;28;20069;-76
2023/04/09 00:25:34;;;;;;;2.70;2.05;;;;;;;11.08;100.00;102623.16;10414369;28;20519;-77
2023/04/09 00:30:35;;;;;;;1.75;1.10;;;;;;;10.80;100.00;102620.81;10409093;28;20045;-76
2023/04/09 00:35:37;;;;;;;2.03;0.73;;;;;;;10.83;100.00;102610.69;10409533;28;20065;-77
2023/04/09 00:40:38;;;;;;;3.80;1.48;;;;;;;10.82;100.00;102602.88;10408089;28;20564;-77
2023/04/09 00:45:40;;;;;;;0.73;0.57;;;;;;;10.89;100.00;102602.38;10407964;28;20397;-78
2023/04/09 00:50:42;;;;;;;1.35;1.02;;;;;;;10.78;100.00;102600.13;10408715;28;20136;-77
2023/04/09 00:55:44;;;;;;;2.38;0.70;;;;;;;10.98;100.00;102604.53;10407925;28;20051;-78
2023/04/09 01:00:46;;;;;;;1.45;1.35;;;;;;;11.32;100.00;102599.41;10401997;28;20046;-77
2023/04/09 01:06:10;;;;;;;0.73;0.73;;;;;;;11.18;100.00;102592.66;10398238;28;20045;-76
2023/04/09 01:11:30;;;;;;;5.07;0.98;;;;;;;10.48;100.00;102589.97;10415953;28;20057;-76
2023/04/09 01:16:35;;;;;;;0.82;0.52;;;;;;;11.20;100.00;102585.91;10420804;28;20046;-77
2023/04/09 01:21:39;;;;;;;1.98;1.50;;;;;;;10.43;100.00;102578.53;10414859;28;20060;-77
2023/04/09 01:27:06;;;;;;;1.65;0.90;;;;;;;10.75;100.00;102579.34;10391631;28;20038;-77
2023/04/09 01:32:22;;;;;;;1.00;0.50;;;;;;;10.77;100.00;102580.28;10404453;28;20037;-76
2023/04/09 01:37:25;;;;;;;0.50;0.32;;;;;;;10.62;100.00;102569.19;10400800;28;20077;-77
2023/04/09 01:42:28;;;;;;;0.90;0.77;;;;;;;10.57;100.00;102575.78;10407894;28;20050;-76
2023/04/09 01:47:29;;;;;;;1.20;0.77;;;;;;;10.63;100.00;102570.97;10408463;28;20574;-77
2023/04/09 01:52:31;;;;;;;0.80;0.60;;;;;;;10.81;100.00;102560.72;10405723;28;20033;-76
2023/04/09 01:57:32;;;;;;;0.47;0.47;;;;;;;10.74;100.00;102563.78;10411796;28;20091;-77
2023/04/09 02:02:45;;;;;;;1.27;1.10;;;;;;;10.62;100.00;102569.19;10407551;28;20045;-77
2023/04/09 02:07:53;;;;;;;1.25;1.00;;;;;;;10.63;100.00;102578.69;10409071;28;20057;-77
2023/04/09 02:12:56;;;;;;;0.63;0.57;;;;;;;10.64;100.00;102567.59;10413360;28;20046;-77
2023/04/09 02:17:58;;;;;;;4.43;2.20;;;;;;;10.65;100.00;102574.50;10413236;28;20088;-77
2023/04/09 02:23:00;;;;;;;1.55;1.02;;;;;;;10.52;100.00;102566.94;10406001;28;20042;-77
2023/04/09 02:28:01;;;;;;;1.15;1.05;;;;;;;10.60;100.00;102568.25;10420325;28;20099;-76
2023/04/09 02:33:03;;;;;;;2.28;1.77;;;;;;;10.34;100.00;102559.09;10403419;28;20048;-77
2023/04/09 02:38:04;;;;;;;1.25;1.15;;;;;;;10.27;100.00;102557.88;10404550;28;20583;-77
2023/04/09 02:43:07;;;;;;;1.98;0.88;;;;;;;10.45;100.00;102555.41;10409339;28;20061;-77
2023/04/09 02:48:08;;;;;;;7.40;1.85;;;;;;;10.12;100.00;102563.97;10412202;28;20490;-77
2023/04/09 02:53:10;;;;;;;6.43;1.42;;;;;;;10.06;100.00;102561.06;10411708;28;20045;-77
2023/04/09 02:58:12;;;;;;;1.23;1.02;;;;;;;9.96;100.00;102549.38;10409457;28;20041;-77
2023/04/09 03:03:13;;;;;;;1.40;1.08;;;;;;;10.05;100.00;102553.25;10406013;28;20187;-77
2023/04/09 03:08:15;;;;;;;2.83;1.58;;;;;;;9.76;100.00;102550.84;10405960;28;20045;-76
2023/04/09 03:13:16;;;;;;;1.83;0.93;;;;;;;10.00;100.00;102558.16;10407191;28;20116;-77
2023/04/09 03:18:18;;;;;;;2.67;1.67;;;;;;;9.93;100.00;102553.47;10410399;28;20435;-77
2023/04/09 03:23:20;;;;;;;5.95;1.38;;;;;;;9.69;100.00;102553.88;10410075;28;20645;-77
2023/04/09 03:28:21;;;;;;;3.80;1.73;;;;;;;9.68;100.00;102552.09;10395170;28;20056;-77
2023/04/09 03:33:26;;;;;;;0.60;0.60;;;;;;;9.80;100.00;102547.63;10408048;28;20065;-77
2023/04/09 03:38:30;;;;;;;1.58;1.13;;;;;;;9.43;100.00;102545.56;10403059;28;20041;-77
2023/04/09 03:43:35;;;;;;;0.63;0.63;;;;;;;9.41;100.00;102547.19;10392409;28;20471;-77
2023/04/09 03:48:37;;;;;;;0.93;0.82;;;;;;;9.23;100.00;102552.16;10388900;28;20116;-76
2023/04/09 03:53:40;;;;;;;0.35;0.35;;;;;;;9.23;100.00;102546.09;10387734;28;20049;-77
2023/04/09 03:58:42;;;;;;;1.35;0.88;;;;;;;8.96;100.00;102546.28;10406711;28;20482;-76
2023/04/09 04:03:46;;;;;;;1.55;1.40;;;;;;;8.75;100.00;102546.75;10409953;28;20045;-77
2023/04/09 04:08:59;;;;;;;4.10;1.80;;;;;;;8.59;100.00;102550.09;10409555;28;20088;-77
2023/04/09 04:14:10;;;;;;;0.50;0.45;;;;;;;8.38;100.00;102539.34;10414152;28;20103;-77
2023/04/09 04:19:14;;;;;;;0.63;0.63;;;;;;;8.01;100.00;102553.38;10412436;28;20730;-77
2023/04/09 04:24:20;;;;;;;0.88;0.68;;;;;;;8.25;100.00;102545.44;10394518;28;20044;-77
2023/04/09 04:29:22;;;;;;;1.67;1.17;;;;;;;7.71;100.00;102544.63;10416257;28;20090;-77
2023/04/09 04:34:28;;;;;;;0.95;0.60;;;;;;;7.53;100.00;102542.66;10419014;28;20037;-77
2023/04/09 04:39:36;;;;;;;2.40;0.82;;;;;;;7.62;100.00;102548.38;10419188;28;20073;-77
2023/04/09 04:44:43;;;;;;;2.85;1.50;;;;;;;7.47;100.00;102547.41;10411962;28;20052;-76
2023/04/09 04:49:55;;;;;;;2.20;0.95;;;;;;;7.30;100.00;102539.47;10419148;28;20049;-76
2023/04/09 04:54:56;;;;;;;1.70;0.98;;;;;;;7.32;100.00;102541.25;10406318;28;20046;-77
2023/04/09 04:59:59;;;;;;;1.17;0.63;;;;;;;7.36;100.00;102551.81;10419962;28;20633;-77
2023/04/09 05:05:01;;;;;;;2.85;1.10;;;;;;;7.15;100.00;102553.84;10408469;28;20500;-77
2023/04/09 05:10:09;;;;;;;2.70;2.25;;;;;;;7.12;100.00;102554.53;10412766;28;20055;-77
2023/04/09 05:15:14;;;;;;;0.82;0.77;;;;;;;7.36;100.00;102566.31;10406933;28;20042;-76
2023/04/09 05:20:16;;;;;;;4.18;1.13;;;;;;;7.33;100.00;102561.00;10428628;28;20110;-76
2023/04/09 05:25:25;;;;;;;1.67;0.73;;;;;;;6.96;100.00;102542.34;10415943;28;20091;-77
2023/04/09 05:30:27;;;;;;;0.32;0.30;;;;;;;6.65;100.00;102557.34;10414751;28;20048;-77
2023/04/09 05:35:31;;;;;;;3.35;1.85;;;;;;;6.74;100.00;102536.59;10413234;28;20055;-77
2023/04/09 05:40:34;;;;;;;0.63;0.63;;;;;;;7.07;100.00;102537.06;10412220;28;20152;-77
2023/04/09 05:45:40;;;;;;;3.60;1.92;;;;;;;7.28;100.00;102530.78;10414393;28;20034;-77
2023/04/09 05:50:51;;;;;;;1.23;0.85;;;;;;;7.08;100.00;102538.84;10415703;28;20500;-77
2023/04/09 05:55:59;;;;;;;0.68;0.60;;;;;;;7.21;100.00;102528.63;10407937;28;20072;-77
2023/04/09 06:01:14;;;;;;;2.65;0.95;;;;;;;7.67;100.00;102534.97;10409745;28;20056;-76
2023/04/09 06:06:15;;;;;;;0.55;0.52;;;;;;;7.81;100.00;102534.16;10410685;28;20419;-77
2023/04/09 06:11:17;;;;;;;2.75;0.90;;;;;;;8.05;100.00;102536.50;10390696;28;20068;-77
2023/04/09 06:16:19;;;;;;;2.15;1.65;;;;;;;7.80;100.00;102540.06;10397401;28;20048;-77
2023/04/09 06:21:21;;;;;;;1.38;1.27;;;;;;;8.12;100.00;102538.66;10402913;28;20041;-77
2023/04/09 06:26:22;;;;;;;0.70;0.65;;;;;;;8.54;100.00;102542.09;10410187;28;20037;-77
2023/04/09 06:31:24;;;;;;;1.50;0.82;;;;;;;8.73;100.00;102540.66;10403040;28;20092;-76
2023/04/09 06:36:26;;;;;;;1.08;0.75;;;;;;;9.02;100.00;102546.63;10414593;28;20314;-77
2023/04/09 06:41:28;;;;;;;2.70;1.52;;;;;;;8.96;100.00;102549.72;10415434;28;20041;-77
2023/04/09 06:46:29;;;;;;;3.45;1.42;;;;;;;9.18;100.00;102558.69;10406973;28;20051;-76
2023/04/09 06:51:31;;;;;;;5.40;3.17;;;;;;;9.79;100.00;102561.28;10415377;28;20040;-77
2023/04/09 06:56:33;;;;;;;5.88;1.95;;;;;;;9.79;100.00;102566.44;10403992;28;20046;-77
2023/04/09 07:01:36;;;;;;;2.00;1.90;;;;;;;10.14;100.00;102570.09;10392974;28;20045;-77
2023/04/09 07:06:39;;;;;;;1.83;0.85;;;;;;;10.31;100.00;102572.69;10404962;28;20051;-79
2023/04/09 07:11:40;;;;;;;4.25;1.85;;;;;;;10.50;100.00;102578.84;10400407;28;20037;-77
2023/04/09 07:16:45;;;;;;;1.70;1.55;;;;;;;9.72;100.00;102584.91;10403421;28;20069;-77
2023/04/09 07:21:46;;;;;;;1.23;0.98;;;;;;;10.48;100.00;102577.06;10406409;28;20045;-77
2023/04/09 07:26:49;;;;;;;3.25;2.13;;;;;;;11.10;100.00;102575.13;10409371;28;20137;-77
2023/04/09 07:31:52;;;;;;;3.60;3.30;;;;;;;11.74;100.00;102581.66;10393275;28;20120;-77
2023/04/09 07:36:54;;;;;;;1.70;1.33;;;;;;;11.86;100.00;102585.66;10407727;28;20723;-77
2023/04/09 07:41:56;;;;;;;1.13;1.05;;;;;;;12.31;100.00;102573.16;10412473;28;20041;-77
2023/04/09 07:46:57;;;;;;;2.75;1.63;;;;;;;13.58;100.00;102573.41;10409517;28;20037;-77
2023/04/09 07:51:59;;;;;;;2.45;1.58;;;;;;;12.75;100.00;102573.34;10415138;28;20107;-77
2023/04/09 07:57:00;;;;;;;4.40;2.38;;;;;;;12.70;100.00;102578.31;10409216;28;20055;-77
2023/04/09 08:02:02;;;;;;;3.30;2.03;;;;;;;14.18;100.00;102574.84;10404962;28;20213;-77
2023/04/09 08:07:04;;;;;;;4.07;1.33;;;;;;;13.59;100.00;102577.72;10413396;28;20056;-77
2023/04/09 08:12:06;;;;;;;5.25;2.45;;;;;;;14.79;100.00;102567.53;10401022;28;20650;-77
2023/04/09 08:17:07;;;;;;;2.42;1.48;;;;;;;14.97;100.00;102574.22;10420285;28;20136;-78
2023/04/09 08:22:08;;;;;;;6.28;2.92;;;;;;;14.63;100.00;102571.28;10405423;28;20049;-77
2023/04/09 08:27:10;;;;;;;2.75;1.67;;;;;;;14.22;100.00;102576.72;10393189;28;20524;-77
2023/04/09 08:32:13;;;;;;;2.25;0.90;;;;;;;14.71;100.00;102571.56;10411379;28;20041;-77
2023/04/09 08:37:15;;;;;;;11.75;1.77;;;;;;;15.17;100.00;102567.97;10404400;28;20049;-77
2023/04/09 08:42:18;;;;;;;1.67;1.27;;;;;;;15.32;100.00;102566.72;10396489;28;20036;-77
2023/04/09 08:47:20;;;;;;;3.05;1.55;;;;;;;15.37;100.00;102559.97;10419136;28;20072;-77
2023/04/09 08:52:31;;;;;;;1.80;1.27;;;;;;;15.35;100.00;102561.63;10385976;28;20048;-78
2023/04/09 08:57:39;;;;;;;1.50;1.40;;;;;;;16.16;100.00;102563.31;10402331;28;20103;-77
2023/04/09 09:03:00;;;;;;;5.25;2.75;;;;;;;16.27;100.00;102560.16;10394776;28;20075;-78
2023/04/09 09:08:02;;;;;;;1.08;0.75;;;;;;;15.85;100.00;102559.78;10414656;28;20150;-77
2023/04/09 09:13:23;;;;;;;3.42;2.10;;;;;;;15.45;100.00;102545.50;10392295;28;20061;-77
2023/04/09 09:18:38;;;;;;;3.70;1.38;;;;;;;16.64;100.00;102537.75;10429446;28;20125;-77
2023/04/09 09:23:39;;;;;;;3.55;1.92;;;;;;;15.69;100.00;102547.13;10413961;28;20144;-78
2023/04/09 09:28:41;;;;;;;1.10;0.77;;;;;;;14.77;100.00;102538.09;10415659;28;20418;-77
2023/04/09 09:33:43;;;;;;;2.83;1.38;;;;;;;17.29;99.73;102521.19;10403116;28;20037;-78
2023/04/09 09:38:56;;;;;;;2.42;0.75;;;;;;;15.07;100.00;102534.78;10397158;28;20047;-77
2023/04/09 09:43:57;;;;;;;1.65;1.08;;;;;;;16.34;99.11;102523.06;10404798;28;20112;-78
2023/04/09 09:48:59;;;;;;;1.60;1.23;;;;;;;16.06;100.00;102527.47;10408823;28;20055;-77
2023/04/09 09:54:01;;;;;;;1.02;0.75;;;;;;;16.23;95.93;102520.19;10394324;28;20583;-77
2023/04/09 09:59:20;;;;;;;2.35;1.35;;;;;;;16.78;98.14;102515.59;10409568;28;20128;-77
2023/04/09 10:04:25;;;;;;;0.65;0.65;;;;;;;17.44;96.71;102508.53;10413266;28;20060;-78
2023/04/09 10:09:27;;;;;;;2.53;0.68;;;;;;;16.00;97.53;102510.00;10376561;28;20045;-78
2023/04/09 10:14:28;;;;;;;1.63;0.93;;;;;;;16.28;94.37;102502.06;10421203;28;20459;-79
2023/04/09 10:19:34;;;;;;;1.27;0.95;;;;;;;17.51;89.40;102503.47;10416165;28;20052;-78
2023/04/09 10:24:36;;;;;;;0.43;0.30;;;;;;;18.30;86.97;102490.34;10414824;28;20119;-77
2023/04/09 10:29:46;;;;;;;0.38;0.35;;;;;;;17.72;85.43;102496.09;10416575;28;20080;-79
2023/04/09 10:34:49;;;;;;;0.68;0.32;;;;;;;16.71;90.93;102487.63;10418488;28;20065;-79
2023/04/09 10:39:51;;;;;;;3.42;1.45;;;;;;;15.85;87.49;102491.34;10395437;28;20060;-78
2023/04/09 10:45:05;;;;;;;0.30;0.30;;;;;;;16.78;87.20;102473.94;10415073;28;20037;-78
2023/04/09 10:50:26;;;;;;;1.33;1.00;;;;;;;16.21;85.11;102474.13;10409384;28;20055;-79
2023/04/09 10:55:36;;;;;;;0.73;0.47;;;;;;;17.66;82.52;102467.31;10410396;28;20042;-78
2023/04/09 11:00:39;;;;;;;0.55;0.38;;;;;;;17.96;81.97;102460.09;10407937;28;20041;-78
2023/04/09 11:05:42;;;;;;;1.73;0.50;;;;;;;18.22;84.18;102452.78;10427613;28;20619;-79
2023/04/09 11:10:46;;;;;;;0.55;0.43;;;;;;;18.00;78.98;102457.59;10412049;28;20120;-78
2023/04/09 11:15:51;;;;;;;0.65;0.50;;;;;;;17.52;79.88;102453.09;10428038;28;20073;-78
2023/04/09 11:20:58;;;;;;;1.63;0.68;;;;;;;17.33;85.35;102450.06;10423068;28;20117;-78
2023/04/09 11:26:00;;;;;;;1.85;0.43;;;;;;;19.31;80.60;102438.09;10408933;28;20041;-77
2023/04/09 11:31:04;;;;;;;1.42;1.02;;;;;;;16.80;83.43;102441.00;10402589;28;20068;-78
2023/04/09 11:36:06;;;;;;;2.42;0.45;;;;;;;17.56;82.12;102436.69;10400828;28;20107;-79
2023/04/09 11:41:11;;;;;;;1.10;0.60;;;;;;;17.75;84.35;102425.81;10382822;28;20049;-78
2023/04/09 11:46:13;;;;;;;0.40;0.40;;;;;;;20.04;78.74;102422.44;10403168;28;20037;-78
2023/04/09 11:51:15;;;;;;;0.70;0.35;;;;;;;18.94;79.59;102429.72;10382414;28;20049;-79
2023/04/09 11:56:17;;;;;;;2.83;1.27;;;;;;;19.57;76.69;102418.38;10388902;28;20503;-78
2023/04/09 12:01:20;;;;;;;1.30;1.05;;;;;;;18.67;75.79;102410.09;10413955;28;20092;-79
2023/04/09 12:06:23;;;;;;;0.20;0.20;;;;;;;18.48;77.42;102418.47;10420390;28;20033;-79
2023/04/09 12:11:28;;;;;;;0.70;0.50;;;;;;;17.68;81.99;102412.59;10410905;28;20108;-78
2023/04/09 12:16:31;;;;;;;1.70;0.80;;;;;;;17.43;84.47;102422.50;10411208;28;20068;-78
2023/04/09 12:21:49;;;;;;;2.38;0.85;;;;;;;17.69;84.99;102430.88;10417168;28;20037;-78
2023/04/09 12:26:51;;;;;;;1.38;1.27;;;;;;;17.70;82.13;102421.34;10423703;28;20044;-78
2023/04/09 12:31:52;;;;;;;1.27;0.82;;;;;;;17.97;82.42;102421.06;10422121;28;20045;-78
2023/04/09 12:36:54;;;;;;;1.20;0.60;;;;;;;18.36;87.80;102420.00;10411645;28;20045;-78
2023/04/09 12:41:56;;;;;;;1.55;0.93;;;;;;;18.45;81.82;102405.38;10412164;28;20102;-79
2023/04/09 12:46:58;;;;;;;1.52;1.02;;;;;;;16.42;85.75;102406.22;10409818;28;20500;-79
2023/04/09 12:51:59;;;;;;;1.10;0.68;;;;;;;16.76;89.56;102407.03;10399445;28;20143;-78
2023/04/09 12:57:01;;;;;;;0.57;0.50;;;;;;;15.97;89.75;102412.84;10400825;28;20107;-78
2023/04/09 13:02:02;;;;;;;0.50;0.43;;;;;;;16.78;86.38;102402.78;10405728;28;20110;-78
2023/04/09 13:07:04;;;;;;;1.23;1.13;;;;;;;17.44;85.03;102391.28;10412764;28;20049;-79
2023/04/09 13:12:05;;;;;;;0.80;0.75;;;;;;;17.18;85.61;102395.94;10413912;28;20095;-78
2023/04/09 13:17:08;;;;;;;1.58;0.77;;;;;;;16.49;84.66;102390.78;10413238;28;20099;-79
2023/04/09 13:22:10;;;;;;;1.08;0.75;;;;;;;18.36;83.43;102375.66;10407515;28;20072;-79
2023/04/09 13:27:11;;;;;;;0.28;0.28;;;;;;;17.90;78.94;102378.28;10411429;28;20061;-78
2023/04/09 13:32:13;;;;;;;1.17;0.88;;;;;;;18.72;83.13;102376.25;10409421;28;20095;-77
2023/04/09 13:37:15;;;;;;;1.05;0.65;;;;;;;18.28;80.91;102384.22;10415359;28;20440;-77
2023/04/09 13:42:17;;;;;;;0.40;0.20;;;;;;;19.49;81.53;102361.66;10414505;28;20095;-79
2023/04/09 13:47:18;;;;;;;0.60;0.57;;;;;;;19.47;76.83;102359.91;10414299;28;20448;-77
2023/04/09 13:52:20;;;;;;;0.40;0.40;;;;;;;18.77;75.30;102352.81;10408916;28;20126;-77
2023/04/09 13:57:21;;;;;;;0.77;0.25;;;;;;;18.84;79.82;102357.28;10401507;28;20049;-79
2023/04/09 14:02:23;;;;;;;0.43;0.17;;;;;;;19.11;77.33;102345.47;10410400;28;20131;-77
2023/04/09 14:07:25;;;;;;;0.68;0.47;;;;;;;18.54;77.22;102345.50;10411420;28;20045;-78
2023/04/09 14:12:26;;;;;;;1.80;1.20;;;;;;;17.76;76.06;102333.69;10415270;28;20476;-77
2023/04/09 14:17:28;;;;;;;3.75;0.30;;;;;;;18.89;80.26;102332.09;10401607;28;20038;-77
2023/04/09 14:22:30;;;;;;;0.52;0.52;;;;;;;19.54;80.21;102329.47;10409545;28;20046;-77
2023/04/09 14:27:32;;;;;;;0.65;0.55;;;;;;;19.10;77.72;102328.06;10389681;28;20049;-77
2023/04/09 14:32:33;;;;;;;0.88;0.30;;;;;;;18.43;73.46;102326.22;10389841;28;20535;-77
2023/04/09 14:37:35;;;;;;;1.45;0.47;;;;;;;18.35;72.00;102328.69;10371815;28;20055;-77
2023/04/09 14:42:36;;;;;;;1.55;0.50;;;;;;;17.98;76.90;102325.44;10392839;28;20049;-78
2023/04/09 14:47:38;;;;;;;1.00;0.50;;;;;;;18.13;75.58;102323.09;10384032;28;20038;-80
2023/04/09 14:52:39;;;;;;;0.80;0.60;;;;;;;19.15;79.29;102308.97;10390881;28;20049;-79
2023/04/09 14:57:41;;;;;;;0.20;0.15;;;;;;;19.13;73.09;102307.19;10392014;28;20068;-77
2023/04/09 15:02:43;;;;;;;0.32;0.20;;;;;;;19.73;74.07;102301.78;10389216;28;20042;-79
2023/04/09 15:07:45;;;;;;;1.80;0.30;;;;;;;19.34;74.86;102289.16;10392227;28;20404;-79
2023/04/09 15:12:46;;;;;;;0.50;0.50;;;;;;;18.59;71.32;102296.84;10397482;28;20481;-80
2023/04/09 15:17:47;;;;;;;0.70;0.38;;;;;;;19.54;72.06;102299.00;10377722;28;20846;-77
2023/04/09 15:22:50;;;;;;;0.13;0.13;;;;;;;17.99;72.48;102291.56;10389042;28;20803;-81
2023/04/09 15:27:51;;;;;;;0.52;0.20;;;;;;;18.80;73.09;102271.94;10385835;28;20042;-81
2023/04/09 15:32:53;;;;;;;0.20;0.15;;;;;;;17.33;73.04;102285.09;10392203;28;20053;-81
2023/04/09 15:37:55;;;;;;;0.40;0.40;;;;;;;17.72;77.75;102284.97;10374269;28;20091;-80
2023/04/09 15:42:57;;;;;;;1.65;0.82;;;;;;;18.33;74.86;102273.88;10391364;28;20488;-80
2023/04/09 15:47:58;;;;;;;1.55;1.05;;;;;;;18.95;72.15;102269.53;10395455;28;20057;-77
2023/04/09 15:53:00;;;;;;;3.15;1.13;;;;;;;18.63;70.93;102264.75;10397518;28;20049;-80
2023/04/09 15:58:01;;;;;;;2.35;0.55;;;;;;;18.60;71.92;102251.63;10395043;28;20155;-79
2023/04/09 16:03:03;;;;;;;2.22;1.38;;;;;;;18.25;69.68;102249.38;10390294;28;20065;-81
2023/04/09 16:08:05;;;;;;;2.15;0.70;;;;;;;17.76;69.16;102242.47;10387933;28;20049;-79
2023/04/09 16:13:06;;;;;;;0.40;0.20;;;;;;;17.91;73.88;102244.47;10395500;28;20045;-79
2023/04/09 16:18:08;;;;;;;0.93;0.63;;;;;;;17.73;77.65;102239.81;10390760;28;20049;-81
2023/04/09 16:23:10;;;;;;;0.20;0.20;;;;;;;17.85;69.68;102233.94;10383549;28;20038;-79
2023/04/09 16:28:15;;;;;;;0.65;0.30;;;;;;;17.11;74.13;102232.59;10387008;28;20045;-79
2023/04/09 16:33:17;;;;;;;0.25;0.25;;;;;;;17.35;74.39;102231.31;10396848;28;20137;-80
2023/04/09 16:38:18;;;;;;;1.27;0.75;;;;;;;17.33;73.15;102233.88;10391381;28;20403;-78
2023/04/09 16:43:20;;;;;;;1.33;0.93;;;;;;;17.11;73.75;102230.00;10396752;28;20084;-79
2023/04/09 16:48:22;;;;;;;0.73;0.57;;;;;;;16.91;74.84;102227.81;10390027;28;20056;-78
2023/04/09 16:53:24;;;;;;;1.63;0.63;;;;;;;16.73;75.61;102230.03;10399022;28;20055;-80
2023/04/09 16:58:26;;;;;;;1.27;1.00;;;;;;;16.75;76.26;102224.00;10375833;28;20049;-79
2023/04/09 17:03:28;;;;;;;1.33;0.52;;;;;;;16.61;78.56;102246.25;10379037;28;20515;-81
2023/04/09 17:08:29;;;;;;;1.65;0.68;;;;;;;16.51;77.40;102239.97;10382800;28;20558;-82
2023/04/09 17:13:34;;;;;;;0.90;0.80;;;;;;;16.35;79.31;102243.91;10365113;28;20184;-80
2023/04/09 17:18:36;;;;;;;5.47;0.73;;;;;;;16.51;78.00;102247.78;10397405;28;21981;-80
2023/04/09 17:23:37;;;;;;;0.68;0.60;;;;;;;16.09;80.65;102245.91;10393441;28;20515;-81
2023/04/09 17:28:40;;;;;;;0.70;0.70;;;;;;;15.84;83.46;102251.38;10382390;28;20587;-80
2023/04/09 17:33:45;;;;;;;0.32;0.32;;;;;;;16.22;84.79;102245.38;10392424;28;20691;-79
2023/04/09 17:38:50;;;;;;;0.40;0.15;;;;;;;15.97;85.06;102246.50;10392857;28;20134;-79
2023/04/09 17:43:53;;;;;;;0.20;0.20;;;;;;;15.69;87.11;102240.53;10396824;28;20701;-78
2023/04/09 17:48:54;;;;;;;0.38;0.22;;;;;;;15.90;87.55;102240.25;10398893;28;20049;-80
2023/04/09 17:53:55;;;;;;;0.98;0.50;;;;;;;15.48;88.65;102236.53;10387066;28;20416;-79
2023/04/09 17:58:57;;;;;;;2.72;1.02;;;;;;;15.47;86.16;102245.16;10398789;28;20048;-79
2023/04/09 18:03:59;;;;;;;1.65;0.95;;;;;;;15.12;90.03;102237.28;10402339;28;20060;-79
2023/04/09 18:09:01;;;;;;;0.73;0.50;;;;;;;14.93;92.97;102235.00;10415260;28;20681;-80
2023/04/09 18:14:06;;;;;;;0.90;0.70;;;;;;;14.74;96.08;102237.91;10418163;28;20052;-79
2023/04/09 18:19:08;;;;;;;0.70;0.50;;;;;;;14.54;97.39;102242.47;10416710;28;20056;-80
2023/04/09 18:24:10;;;;;;;0.60;0.60;;;;;;;14.12;96.83;102238.56;10411043;28;20049;-80
2023/04/09 18:29:11;;;;;;;0.55;0.40;;;;;;;13.81;98.13;102252.22;10410602;28;20128;-79
2023/04/09 18:34:13;;;;;;;0.00;0.00;;;;;;;13.77;97.55;102265.88;10407593;28;20069;-79
2023/04/09 18:39:15;;;;;;;0.20;0.20;;;;;;;13.21;100.00;102263.88;10413630;28;20047;-78
2023/04/09 18:44:16;;;;;;;3.60;0.40;;;;;;;13.32;97.85;102257.38;10401785;28;20042;-77
2023/04/09 18:49:18;;;;;;;8.10;0.85;;;;;;;13.04;100.00;102252.88;10411513;28;20072;-77
2023/04/09 18:54:19;;;;;;;0.00;0.00;;;;;;;12.42;100.00;102262.56;10410253;28;20076;-77
2023/04/09 18:59:21;;;;;;;2.20;0.20;;;;;;;11.63;100.00;102273.06;10415990;28;20037;-78
2023/04/09 19:04:26;;;;;;;0.55;0.10;;;;;;;11.78;100.00;102267.69;10412419;28;20128;-77
2023/04/09 19:09:28;;;;;;;0.22;0.17;;;;;;;11.88;100.00;102274.09;10413407;28;20045;-78
2023/04/09 19:14:30;;;;;;;1.27;0.57;;;;;;;12.00;100.00;102277.25;10428309;28;20061;-77
2023/04/09 19:19:32;;;;;;;0.30;0.30;;;;;;;12.13;100.00;102262.25;10428685;28;20084;-77
2023/04/09 19:24:33;;;;;;;0.47;0.32;;;;;;;11.92;100.00;102276.03;10423833;28;20041;-78
2023/04/09 19:29:35;;;;;;;1.25;0.60;;;;;;;11.71;100.00;102276.88;10420612;28;20076;-78
2023/04/09 19:34:36;;;;;;;0.43;0.43;;;;;;;11.29;100.00;102281.88;10418612;28;20403;-77
2023/04/09 19:39:39;;;;;;;2.03;1.42;;;;;;;11.26;100.00;102287.78;10419888;28;20088;-77
2023/04/09 19:44:40;;;;;;;3.03;0.88;;;;;;;11.27;100.00;102280.97;10412081;28;20044;-77
2023/04/09 19:49:42;;;;;;;1.23;1.00;;;;;;;11.61;100.00;102274.69;10414790;28;20045;-77
2023/04/09 19:54:43;;;;;;;2.70;2.50;;;;;;;11.73;100.00;102275.22;10424370;28;20048;-76
2023/04/09 19:59:45;;;;;;;3.63;1.67;;;;;;;11.52;100.00;102271.72;10420577;28;20045;-77
2023/04/09 20:04:51;;;;;;;3.08;1.52;;;;;;;11.43;100.00;102269.63;10431714;28;20579;-77
2023/04/09 20:09:53;;;;;;;8.15;2.22;;;;;;;11.47;100.00;102253.44;10414382;28;20049;-77
2023/04/09 20:14:56;;;;;;;2.88;1.98;;;;;;;11.38;100.00;102264.25;10425133;28;20128;-77
2023/04/09 20:19:57;;;;;;;1.65;1.42;;;;;;;11.36;100.00;102267.56;10425360;28;20045;-77
2023/04/09 20:24:59;;;;;;;9.15;2.10;;;;;;;10.99;100.00;102266.78;10416793;28;20044;-78
2023/04/09 20:30:00;;;;;;;2.20;1.40;;;;;;;11.01;100.00;102259.13;10425356;28;20041;-77
2023/04/09 20:35:03;;;;;;;4.47;2.95;;;;;;;10.85;100.00;102253.25;10420720;28;20055;-78
2023/04/09 20:40:05;;;;;;;2.33;1.63;;;;;;;10.76;100.00;102248.53;10401554;28;20137;-78
2023/04/09 20:45:08;;;;;;;2.28;1.83;;;;;;;10.79;100.00;102243.53;10413386;28;20117;-77
2023/04/09 20:50:09;;;;;;;3.78;1.98;;;;;;;10.81;100.00;102240.16;10427092;28;20057;-77
2023/04/09 20:55:11;;;;;;;6.18;3.13;;;;;;;10.53;100.00;102242.31;10413909;28;20044;-78
2023/04/09 21:00:13;;;;;;;3.33;2.28;;;;;;;10.41;100.00;102241.75;10405404;28;20049;-78
2023/04/09 21:05:15;;;;;;;2.40;1.58;;;;;;;10.20;100.00;102238.97;10412371;28;20478;-77
2023/04/09 21:10:24;;;;;;;2.53;1.83;;;;;;;9.82;100.00;102231.13;10386563;28;20045;-77
2023/04/09 21:15:25;;;;;;;1.30;1.02;;;;;;;9.76;100.00;102217.91;10388877;28;20493;-77
2023/04/09 21:20:27;;;;;;;3.00;1.67;;;;;;;9.93;100.00;102218.78;10413664;28;20049;-77
2023/04/09 21:25:28;;;;;;;3.88;2.20;;;;;;;9.97;100.00;102225.84;10401751;28;20571;-77
2023/04/09 21:30:31;;;;;;;1.77;1.48;;;;;;;10.02;100.00;102224.38;10407377;28;20566;-77
2023/04/09 21:35:33;;;;;;;6.60;1.95;;;;;;;10.21;100.00;102230.44;10401952;28;20057;-78
2023/04/09 21:40:35;;;;;;;5.05;2.13;;;;;;;10.20;100.00;102228.66;10404138;28;20171;-77
2023/04/09 21:45:37;;;;;;;4.18;2.42;;;;;;;9.98;100.00;102238.78;10402670;28;20033;-77
2023/04/09 21:50:38;;;;;;;8.65;2.75;;;;;;;9.89;100.00;102228.06;10397705;28;20045;-77
2023/04/09 21:55:40;;;;;;;2.55;1.55;;;;;;;9.62;100.00;102232.69;10402757;28;20120;-77
2023/04/09 22:00:41;;;;;;;3.25;1.60;;;;;;;9.52;100.00;102232.19;10399870;28;20132;-77
2023/04/09 22:05:43;;;;;;;4.75;2.15;;;;;;;9.56;100.00;102227.22;10422315;28;20057;-78
2023/04/09 22:10:45;;;;;;;1.65;1.17;;;;;;;9.88;100.00;102225.38;10411113;28;20068;-78
2023/04/09 22:15:46;;;;;;;3.83;2.08;;;;;;;9.80;100.00;102232.72;10419307;28;20076;-78
2023/04/09 22:20:48;;;;;;;3.47;2.40;;;;;;;9.77;100.00;102238.59;10412929;28;20081;-78
2023/04/09 22:25:49;;;;;;;1.63;1.52;;;;;;;9.86;100.00;102242.47;10420783;28;20049;-78
2023/04/09 22:30:51;;;;;;;2.45;1.55;;;;;;;9.82;100.00;102239.72;10415666;28;20512;-77
2023/04/09 22:35:53;;;;;;;1.63;1.42;;;;;;;9.84;100.00;102240.69;10415667;28;20041;-78
2023/04/09 22:40:55;;;;;;;1.27;0.60;;;;;;;9.75;100.00;102239.34;10421324;28;20535;-77
2023/04/09 22:45:56;;;;;;;3.33;2.25;;;;;;;9.40;100.00;102236.72;10417942;28;20046;-77
2023/04/09 22:50:59;;;;;;;0.90;0.80;;;;;;;9.10;100.00;102246.25;10415064;28;20042;-77
2023/04/09 22:56:00;;;;;;;0.43;0.43;;;;;;;8.93;100.00;102247.91;10414763;28;20107;-78
2023/04/09 23:01:02;;;;;;;2.05;1.20;;;;;;;8.91;100.00;102240.13;10404541;28;20128;-77
2023/04/09 23:06:04;;;;;;;1.33;0.88;;;;;;;9.01;100.00;102234.66;10404411;28;20050;-77